Annandale, New York
Current Conditions -  °F | °C
As of 12:53 AM on Saturday 01 Nov 2014 (Local Time) from KPOU Reporting Station
Overcast Overcast  
Wind Chill: 44°   Ceiling: 3700
Heat Index: 48°   Visibility: 10mi
Dew Point: 37°   Wind: 9mph
Humidity: 66%   Direction: 30°NNE
Pressure: 29.91"   Gusts: NA
Location:  42.0124°N, 73.8998°W
Report Text: KPOU 010453Z AUTO 03008KT 10SM OVC037 09/03 A2991 RMK AO2 SLP126 T00890028 401280000 TSNO
Loading
Personal Weather Stations






























Interactive Weather Map
Tropical Storm Tracking
New forecast layout! Learn more

10-Day Weather Forecast

Advertisements
Track Severe Weather on mobile